sensor_id;sensor_type;location;lat;lon;timestamp;temperature;humidity
18839;DHT22;9548;56.920;14.804;2023-02-12T00:00:18;1.30;99.90
18839;DHT22;9548;56.920;14.804;2023-02-12T00:02:45;1.40;99.90
18839;DHT22;9548;56.920;14.804;2023-02-12T00:05:12;1.40;99.90
18839;DHT22;9548;56.920;14.804;2023-02-12T00:07:42;1.40;99.90
18839;DHT22;9548;56.920;14.804;2023-02-12T00:10:10;1.40;99.90
18839;DHT22;9548;56.920;14.804;2023-02-12T00:12:37;1.40;99.90
18839;DHT22;9548;56.920;14.804;2023-02-12T00:15:05;1.40;99.90
18839;DHT22;9548;56.920;14.804;2023-02-12T00:17:32;1.40;99.90
18839;DHT22;9548;56.920;14.804;2023-02-12T00:19:59;1.40;99.90
18839;DHT22;9548;56.920;14.804;2023-02-12T00:22:26;1.40;99.90
18839;DHT22;9548;56.920;14.804;2023-02-12T00:24:55;1.40;99.90
18839;DHT22;9548;56.920;14.804;2023-02-12T00:27:22;1.40;99.90
18839;DHT22;9548;56.920;14.804;2023-02-12T00:29:49;1.40;99.90
18839;DHT22;9548;56.920;14.804;2023-02-12T00:32:17;1.40;99.90
18839;DHT22;9548;56.920;14.804;2023-02-12T00:34:44;1.40;99.90
18839;DHT22;9548;56.920;14.804;2023-02-12T00:37:11;1.30;99.90
18839;DHT22;9548;56.920;14.804;2023-02-12T00:39:38;1.30;99.90
18839;DHT22;9548;56.920;14.804;2023-02-12T00:42:07;1.40;99.90
18839;DHT22;9548;56.920;14.804;2023-02-12T00:44:34;1.40;99.90
18839;DHT22;9548;56.920;14.804;2023-02-12T00:47:01;1.40;99.90
18839;DHT22;9548;56.920;14.804;2023-02-12T00:49:29;1.30;99.90
18839;DHT22;9548;56.920;14.804;2023-02-12T00:51:58;1.30;99.90
18839;DHT22;9548;56.920;14.804;2023-02-12T00:54:25;1.30;99.90
18839;DHT22;9548;56.920;14.804;2023-02-12T00:56:52;1.30;99.90
18839;DHT22;9548;56.920;14.804;2023-02-12T00:59:21;1.20;99.90
18839;DHT22;9548;56.920;14.804;2023-02-12T01:01:49;1.30;99.90
18839;DHT22;9548;56.920;14.804;2023-02-12T01:04:17;1.30;99.90
18839;DHT22;9548;56.920;14.804;2023-02-12T01:06:44;1.30;99.90
18839;DHT22;9548;56.920;14.804;2023-02-12T01:09:11;1.30;99.90
18839;DHT22;9548;56.920;14.804;2023-02-12T01:11:38;1.40;99.90
18839;DHT22;9548;56.920;14.804;2023-02-12T01:14:05;1.30;99.90
18839;DHT22;9548;56.920;14.804;2023-02-12T01:16:35;1.30;99.90
18839;DHT22;9548;56.920;14.804;2023-02-12T01:19:03;1.30;99.90
18839;DHT22;9548;56.920;14.804;2023-02-12T01:21:32;1.30;99.90
18839;DHT22;9548;56.920;14.804;2023-02-12T01:24:00;1.30;99.90
18839;DHT22;9548;56.920;14.804;2023-02-12T01:26:28;1.30;99.90
18839;DHT22;9548;56.920;14.804;2023-02-12T01:28:57;1.30;99.90
18839;DHT22;9548;56.920;14.804;2023-02-12T01:31:28;1.20;99.90
18839;DHT22;9548;56.920;14.804;2023-02-12T01:33:58;1.30;99.90
18839;DHT22;9548;56.920;14.804;2023-02-12T01:36:26;1.20;99.90
18839;DHT22;9548;56.920;14.804;2023-02-12T01:38:54;1.20;99.90
18839;DHT22;9548;56.920;14.804;2023-02-12T01:41:24;1.20;99.90
18839;DHT22;9548;56.920;14.804;2023-02-12T01:44:13;1.20;99.90
18839;DHT22;9548;56.920;14.804;2023-02-12T01:46:41;1.20;99.90
18839;DHT22;9548;56.920;14.804;2023-02-12T01:49:12;1.20;99.90
18839;DHT22;9548;56.920;14.804;2023-02-12T01:51:41;1.20;99.90
18839;DHT22;9548;56.920;14.804;2023-02-12T01:54:10;1.20;99.90
18839;DHT22;9548;56.920;14.804;2023-02-12T01:56:38;1.20;99.90
18839;DHT22;9548;56.920;14.804;2023-02-12T01:59:06;1.20;99.90
18839;DHT22;9548;56.920;14.804;2023-02-12T02:01:34;1.20;99.90
18839;DHT22;9548;56.920;14.804;2023-02-12T02:04:04;1.20;99.90
18839;DHT22;9548;56.920;14.804;2023-02-12T02:06:38;1.20;99.90
18839;DHT22;9548;56.920;14.804;2023-02-12T02:09:08;1.20;99.90
18839;DHT22;9548;56.920;14.804;2023-02-12T02:11:35;1.20;99.90
18839;DHT22;9548;56.920;14.804;2023-02-12T02:14:19;1.30;99.90
18839;DHT22;9548;56.920;14.804;2023-02-12T02:17:22;1.30;99.90
18839;DHT22;9548;56.920;14.804;2023-02-12T02:20:09;1.30;99.90
18839;DHT22;9548;56.920;14.804;2023-02-12T02:22:49;1.30;99.90
18839;DHT22;9548;56.920;14.804;2023-02-12T02:25:48;1.30;99.90
18839;DHT22;9548;56.920;14.804;2023-02-12T02:28:32;1.30;99.90
18839;DHT22;9548;56.920;14.804;2023-02-12T02:31:12;1.30;99.90
18839;DHT22;9548;56.920;14.804;2023-02-12T02:33:48;1.30;99.90
18839;DHT22;9548;56.920;14.804;2023-02-12T02:36:24;1.30;99.90
18839;DHT22;9548;56.920;14.804;2023-02-12T02:38:56;1.30;99.90
18839;DHT22;9548;56.920;14.804;2023-02-12T02:41:29;1.30;99.90
18839;DHT22;9548;56.920;14.804;2023-02-12T02:43:58;1.30;99.90
18839;DHT22;9548;56.920;14.804;2023-02-12T02:46:33;1.30;99.90
18839;DHT22;9548;56.920;14.804;2023-02-12T02:49:02;1.40;99.90
18839;DHT22;9548;56.920;14.804;2023-02-12T02:51:32;1.40;99.90
18839;DHT22;9548;56.920;14.804;2023-02-12T02:54:04;1.40;99.90
18839;DHT22;9548;56.920;14.804;2023-02-12T02:56:36;1.40;99.90
18839;DHT22;9548;56.920;14.804;2023-02-12T02:59:06;1.40;99.90
18839;DHT22;9548;56.920;14.804;2023-02-12T03:01:39;1.40;99.90
18839;DHT22;9548;56.920;14.804;2023-02-12T03:04:09;1.40;99.90
18839;DHT22;9548;56.920;14.804;2023-02-12T03:06:42;1.40;99.90
18839;DHT22;9548;56.920;14.804;2023-02-12T03:09:15;1.40;99.90
18839;DHT22;9548;56.920;14.804;2023-02-12T03:11:43;1.40;99.90
18839;DHT22;9548;56.920;14.804;2023-02-12T03:14:15;1.50;99.90
18839;DHT22;9548;56.920;14.804;2023-02-12T03:16:48;1.50;99.90
18839;DHT22;9548;56.920;14.804;2023-02-12T03:19:19;1.50;99.90
18839;DHT22;9548;56.920;14.804;2023-02-12T03:21:53;1.50;99.90
18839;DHT22;9548;56.920;14.804;2023-02-12T03:24:26;1.50;99.90
18839;DHT22;9548;56.920;14.804;2023-02-12T03:26:58;1.50;99.90
18839;DHT22;9548;56.920;14.804;2023-02-12T03:29:28;1.50;99.90
18839;DHT22;9548;56.920;14.804;2023-02-12T03:32:02;1.50;99.90
18839;DHT22;9548;56.920;14.804;2023-02-12T03:34:37;1.60;99.90
18839;DHT22;9548;56.920;14.804;2023-02-12T03:37:11;1.60;99.90
18839;DHT22;9548;56.920;14.804;2023-02-12T03:39:44;1.60;99.90
18839;DHT22;9548;56.920;14.804;2023-02-12T03:42:17;1.60;99.90
18839;DHT22;9548;56.920;14.804;2023-02-12T03:44:49;1.60;99.90
18839;DHT22;9548;56.920;14.804;2023-02-12T03:47:24;1.60;99.90
18839;DHT22;9548;56.920;14.804;2023-02-12T03:49:58;1.60;99.90
18839;DHT22;9548;56.920;14.804;2023-02-12T03:52:28;1.70;99.90
18839;DHT22;9548;56.920;14.804;2023-02-12T03:54:56;1.70;99.90
18839;DHT22;9548;56.920;14.804;2023-02-12T03:57:25;1.70;99.90
18839;DHT22;9548;56.920;14.804;2023-02-12T03:59:56;1.70;99.90
18839;DHT22;9548;56.920;14.804;2023-02-12T04:02:24;1.70;99.90
18839;DHT22;9548;56.920;14.804;2023-02-12T04:04:51;1.70;99.90
18839;DHT22;9548;56.920;14.804;2023-02-12T04:07:19;1.70;99.90
18839;DHT22;9548;56.920;14.804;2023-02-12T04:09:46;1.70;99.90
18839;DHT22;9548;56.920;14.804;2023-02-12T04:12:37;1.70;99.90
18839;DHT22;9548;56.920;14.804;2023-02-12T04:15:15;1.70;99.90
18839;DHT22;9548;56.920;14.804;2023-02-12T04:17:50;1.70;99.90
18839;DHT22;9548;56.920;14.804;2023-02-12T04:20:25;1.80;99.90
18839;DHT22;9548;56.920;14.804;2023-02-12T04:23:01;1.80;99.90
18839;DHT22;9548;56.920;14.804;2023-02-12T04:25:44;1.90;99.90
18839;DHT22;9548;56.920;14.804;2023-02-12T04:28:22;1.90;99.90
18839;DHT22;9548;56.920;14.804;2023-02-12T04:30:56;1.90;99.90
18839;DHT22;9548;56.920;14.804;2023-02-12T04:36:14;1.90;99.90
18839;DHT22;9548;56.920;14.804;2023-02-12T04:38:46;1.90;99.90
18839;DHT22;9548;56.920;14.804;2023-02-12T04:41:15;2.00;99.90
18839;DHT22;9548;56.920;14.804;2023-02-12T04:43:42;2.00;99.90
18839;DHT22;9548;56.920;14.804;2023-02-12T04:46:09;1.90;99.90
18839;DHT22;9548;56.920;14.804;2023-02-12T04:48:49;1.90;99.90
18839;DHT22;9548;56.920;14.804;2023-02-12T04:51:17;1.90;99.90
18839;DHT22;9548;56.920;14.804;2023-02-12T04:53:44;1.90;99.90
18839;DHT22;9548;56.920;14.804;2023-02-12T04:56:12;1.90;99.90
18839;DHT22;9548;56.920;14.804;2023-02-12T04:58:39;1.90;99.90
18839;DHT22;9548;56.920;14.804;2023-02-12T05:01:06;2.00;99.90
18839;DHT22;9548;56.920;14.804;2023-02-12T05:03:34;2.00;99.90
18839;DHT22;9548;56.920;14.804;2023-02-12T05:06:03;1.90;99.90
18839;DHT22;9548;56.920;14.804;2023-02-12T05:08:31;1.90;99.90
18839;DHT22;9548;56.920;14.804;2023-02-12T05:11:03;1.90;99.90
18839;DHT22;9548;56.920;14.804;2023-02-12T05:13:30;1.90;99.90
18839;DHT22;9548;56.920;14.804;2023-02-12T05:15:57;1.90;99.90
18839;DHT22;9548;56.920;14.804;2023-02-12T05:18:24;2.00;99.90
18839;DHT22;9548;56.920;14.804;2023-02-12T05:20:54;2.00;99.90
18839;DHT22;9548;56.920;14.804;2023-02-12T05:23:25;2.00;99.90
18839;DHT22;9548;56.920;14.804;2023-02-12T05:25:52;2.00;99.90
18839;DHT22;9548;56.920;14.804;2023-02-12T05:28:19;2.00;99.90
18839;DHT22;9548;56.920;14.804;2023-02-12T05:30:46;2.00;99.90
18839;DHT22;9548;56.920;14.804;2023-02-12T05:33:13;1.90;99.90
18839;DHT22;9548;56.920;14.804;2023-02-12T05:35:40;1.90;99.90
18839;DHT22;9548;56.920;14.804;2023-02-12T05:38:07;1.90;99.90
18839;DHT22;9548;56.920;14.804;2023-02-12T05:40:35;1.90;99.90
18839;DHT22;9548;56.920;14.804;2023-02-12T05:43:02;1.90;99.90
18839;DHT22;9548;56.920;14.804;2023-02-12T05:45:31;1.90;99.90
18839;DHT22;9548;56.920;14.804;2023-02-12T05:47:58;1.90;99.90
18839;DHT22;9548;56.920;14.804;2023-02-12T05:50:25;1.90;99.90
18839;DHT22;9548;56.920;14.804;2023-02-12T05:52:52;1.90;99.90
18839;DHT22;9548;56.920;14.804;2023-02-12T05:55:19;1.90;99.90
18839;DHT22;9548;56.920;14.804;2023-02-12T05:57:47;1.90;99.90
18839;DHT22;9548;56.920;14.804;2023-02-12T06:00:15;2.00;99.90
18839;DHT22;9548;56.920;14.804;2023-02-12T06:02:41;2.00;99.90
18839;DHT22;9548;56.920;14.804;2023-02-12T06:05:08;2.00;99.90
18839;DHT22;9548;56.920;14.804;2023-02-12T06:07:35;2.00;99.90
18839;DHT22;9548;56.920;14.804;2023-02-12T06:10:02;2.00;99.90
18839;DHT22;9548;56.920;14.804;2023-02-12T06:12:29;2.00;99.90
18839;DHT22;9548;56.920;14.804;2023-02-12T06:14:58;2.00;99.90
18839;DHT22;9548;56.920;14.804;2023-02-12T06:17:25;1.90;99.90
18839;DHT22;9548;56.920;14.804;2023-02-12T06:19:51;1.90;99.90
18839;DHT22;9548;56.920;14.804;2023-02-12T06:22:18;2.00;99.90
18839;DHT22;9548;56.920;14.804;2023-02-12T06:24:45;2.00;99.90
18839;DHT22;9548;56.920;14.804;2023-02-12T06:27:12;2.00;99.90
18839;DHT22;9548;56.920;14.804;2023-02-12T06:29:39;2.00;99.90
18839;DHT22;9548;56.920;14.804;2023-02-12T06:32:07;2.00;99.90
18839;DHT22;9548;56.920;14.804;2023-02-12T06:34:38;2.10;99.90
18839;DHT22;9548;56.920;14.804;2023-02-12T06:37:05;2.10;99.90
18839;DHT22;9548;56.920;14.804;2023-02-12T06:39:32;2.10;99.90
18839;DHT22;9548;56.920;14.804;2023-02-12T06:41:58;2.10;99.90
18839;DHT22;9548;56.920;14.804;2023-02-12T06:44:25;2.10;99.90
18839;DHT22;9548;56.920;14.804;2023-02-12T06:46:52;2.20;99.90
18839;DHT22;9548;56.920;14.804;2023-02-12T06:49:21;2.10;99.90
18839;DHT22;9548;56.920;14.804;2023-02-12T06:51:47;2.20;99.90
18839;DHT22;9548;56.920;14.804;2023-02-12T06:54:16;2.20;99.90
18839;DHT22;9548;56.920;14.804;2023-02-12T06:56:43;2.20;99.90
18839;DHT22;9548;56.920;14.804;2023-02-12T06:59:12;2.20;99.90
18839;DHT22;9548;56.920;14.804;2023-02-12T07:01:41;2.30;99.90
18839;DHT22;9548;56.920;14.804;2023-02-12T07:04:08;2.30;99.90
18839;DHT22;9548;56.920;14.804;2023-02-12T07:06:37;2.40;99.90
18839;DHT22;9548;56.920;14.804;2023-02-12T07:09:04;2.30;99.90
18839;DHT22;9548;56.920;14.804;2023-02-12T07:11:33;2.40;99.90
18839;DHT22;9548;56.920;14.804;2023-02-12T07:14:00;2.40;99.90
18839;DHT22;9548;56.920;14.804;2023-02-12T07:16:27;2.50;99.90
18839;DHT22;9548;56.920;14.804;2023-02-12T07:18:55;2.50;99.90
18839;DHT22;9548;56.920;14.804;2023-02-12T07:21:22;2.60;99.90
18839;DHT22;9548;56.920;14.804;2023-02-12T07:23:51;2.60;99.90
18839;DHT22;9548;56.920;14.804;2023-02-12T07:26:20;2.60;99.90
18839;DHT22;9548;56.920;14.804;2023-02-12T07:28:47;2.60;99.90
18839;DHT22;9548;56.920;14.804;2023-02-12T07:31:16;2.60;99.90
18839;DHT22;9548;56.920;14.804;2023-02-12T07:33:44;2.60;99.90
18839;DHT22;9548;56.920;14.804;2023-02-12T07:36:12;2.70;99.90
18839;DHT22;9548;56.920;14.804;2023-02-12T07:38:39;2.70;99.90
18839;DHT22;9548;56.920;14.804;2023-02-12T07:41:10;2.80;99.90
18839;DHT22;9548;56.920;14.804;2023-02-12T07:43:38;2.80;99.90
18839;DHT22;9548;56.920;14.804;2023-02-12T07:46:09;2.90;99.90
18839;DHT22;9548;56.920;14.804;2023-02-12T07:48:37;2.90;99.90
18839;DHT22;9548;56.920;14.804;2023-02-12T07:51:06;2.90;99.90
18839;DHT22;9548;56.920;14.804;2023-02-12T07:53:33;2.90;99.90
18839;DHT22;9548;56.920;14.804;2023-02-12T07:56:10;2.90;99.90
18839;DHT22;9548;56.920;14.804;2023-02-12T07:58:37;2.90;99.90
18839;DHT22;9548;56.920;14.804;2023-02-12T08:01:13;3.00;99.90
18839;DHT22;9548;56.920;14.804;2023-02-12T08:03:40;3.00;99.90
18839;DHT22;9548;56.920;14.804;2023-02-12T08:06:09;3.10;99.90
18839;DHT22;9548;56.920;14.804;2023-02-12T08:08:36;3.10;99.90
18839;DHT22;9548;56.920;14.804;2023-02-12T08:11:04;3.20;99.90
18839;DHT22;9548;56.920;14.804;2023-02-12T08:13:33;3.20;99.90
18839;DHT22;9548;56.920;14.804;2023-02-12T08:16:00;3.30;99.90
18839;DHT22;9548;56.920;14.804;2023-02-12T08:18:29;3.30;99.90
18839;DHT22;9548;56.920;14.804;2023-02-12T08:21:00;3.30;99.90
18839;DHT22;9548;56.920;14.804;2023-02-12T08:23:28;3.30;99.90
18839;DHT22;9548;56.920;14.804;2023-02-12T08:26:07;3.30;99.90
18839;DHT22;9548;56.920;14.804;2023-02-12T08:28:37;3.30;99.90
18839;DHT22;9548;56.920;14.804;2023-02-12T08:31:07;3.40;99.90
18839;DHT22;9548;56.920;14.804;2023-02-12T08:33:34;3.40;99.90
18839;DHT22;9548;56.920;14.804;2023-02-12T08:36:03;3.40;99.90
18839;DHT22;9548;56.920;14.804;2023-02-12T08:38:30;3.50;99.90
18839;DHT22;9548;56.920;14.804;2023-02-12T08:41:00;3.50;99.90
18839;DHT22;9548;56.920;14.804;2023-02-12T08:43:28;3.50;99.90
18839;DHT22;9548;56.920;14.804;2023-02-12T08:46:00;3.60;99.90
18839;DHT22;9548;56.920;14.804;2023-02-12T08:48:27;3.70;99.90
18839;DHT22;9548;56.920;14.804;2023-02-12T08:50:54;3.70;99.90
18839;DHT22;9548;56.920;14.804;2023-02-12T08:53:21;3.80;99.90
18839;DHT22;9548;56.920;14.804;2023-02-12T08:55:48;3.90;99.90
18839;DHT22;9548;56.920;14.804;2023-02-12T08:58:15;3.90;99.90
18839;DHT22;9548;56.920;14.804;2023-02-12T09:00:42;3.90;99.90
18839;DHT22;9548;56.920;14.804;2023-02-12T09:03:10;3.90;99.90
18839;DHT22;9548;56.920;14.804;2023-02-12T09:05:38;4.00;99.90
18839;DHT22;9548;56.920;14.804;2023-02-12T09:08:05;4.00;99.90
18839;DHT22;9548;56.920;14.804;2023-02-12T09:10:33;3.90;99.90
18839;DHT22;9548;56.920;14.804;2023-02-12T09:13:00;3.90;99.90
18839;DHT22;9548;56.920;14.804;2023-02-12T09:15:27;3.90;99.90
18839;DHT22;9548;56.920;14.804;2023-02-12T09:17:54;3.90;99.90
18839;DHT22;9548;56.920;14.804;2023-02-12T09:20:22;3.90;99.90
18839;DHT22;9548;56.920;14.804;2023-02-12T09:22:49;3.90;99.90
18839;DHT22;9548;56.920;14.804;2023-02-12T09:25:18;4.00;99.90
18839;DHT22;9548;56.920;14.804;2023-02-12T09:27:45;4.00;99.90
18839;DHT22;9548;56.920;14.804;2023-02-12T09:30:13;4.00;99.90
18839;DHT22;9548;56.920;14.804;2023-02-12T09:32:40;4.00;99.90
18839;DHT22;9548;56.920;14.804;2023-02-12T09:35:07;4.10;99.90
18839;DHT22;9548;56.920;14.804;2023-02-12T09:37:37;4.20;99.90
18839;DHT22;9548;56.920;14.804;2023-02-12T09:40:06;4.20;99.90
18839;DHT22;9548;56.920;14.804;2023-02-12T09:42:47;4.30;99.90
18839;DHT22;9548;56.920;14.804;2023-02-12T09:45:20;4.40;99.90
18839;DHT22;9548;56.920;14.804;2023-02-12T09:47:52;4.40;99.90
18839;DHT22;9548;56.920;14.804;2023-02-12T09:50:32;4.30;99.90
18839;DHT22;9548;56.920;14.804;2023-02-12T09:53:03;4.30;99.90
18839;DHT22;9548;56.920;14.804;2023-02-12T09:55:32;4.40;99.90
18839;DHT22;9548;56.920;14.804;2023-02-12T09:58:02;4.40;99.90
18839;DHT22;9548;56.920;14.804;2023-02-12T10:00:33;4.50;99.90
18839;DHT22;9548;56.920;14.804;2023-02-12T10:03:01;4.50;99.90
18839;DHT22;9548;56.920;14.804;2023-02-12T10:05:31;4.60;99.90
18839;DHT22;9548;56.920;14.804;2023-02-12T10:08:29;4.60;99.90
18839;DHT22;9548;56.920;14.804;2023-02-12T10:11:05;4.60;99.90
18839;DHT22;9548;56.920;14.804;2023-02-12T10:13:44;4.60;99.90
18839;DHT22;9548;56.920;14.804;2023-02-12T10:16:17;4.70;99.90
18839;DHT22;9548;56.920;14.804;2023-02-12T10:19:00;4.80;99.90
18839;DHT22;9548;56.920;14.804;2023-02-12T10:21:41;4.90;99.90
18839;DHT22;9548;56.920;14.804;2023-02-12T10:24:32;4.90;99.90
18839;DHT22;9548;56.920;14.804;2023-02-12T10:27:07;5.00;99.90
18839;DHT22;9548;56.920;14.804;2023-02-12T10:29:39;5.00;99.90
18839;DHT22;9548;56.920;14.804;2023-02-12T10:32:13;5.00;99.90
18839;DHT22;9548;56.920;14.804;2023-02-12T10:34:42;5.10;99.90
18839;DHT22;9548;56.920;14.804;2023-02-12T10:37:14;5.20;99.90
18839;DHT22;9548;56.920;14.804;2023-02-12T10:39:51;5.10;99.90
18839;DHT22;9548;56.920;14.804;2023-02-12T10:42:29;5.10;99.90
18839;DHT22;9548;56.920;14.804;2023-02-12T10:44:59;5.20;99.90
18839;DHT22;9548;56.920;14.804;2023-02-12T10:47:26;5.20;99.90
18839;DHT22;9548;56.920;14.804;2023-02-12T10:49:56;5.30;99.90
18839;DHT22;9548;56.920;14.804;2023-02-12T10:52:34;5.40;99.90
18839;DHT22;9548;56.920;14.804;2023-02-12T10:55:25;5.40;99.90
18839;DHT22;9548;56.920;14.804;2023-02-12T10:57:53;5.40;99.90
18839;DHT22;9548;56.920;14.804;2023-02-12T11:00:25;5.50;99.90
18839;DHT22;9548;56.920;14.804;2023-02-12T11:03:03;5.50;99.90
18839;DHT22;9548;56.920;14.804;2023-02-12T11:05:32;5.50;99.90
18839;DHT22;9548;56.920;14.804;2023-02-12T11:07:59;5.50;99.90
18839;DHT22;9548;56.920;14.804;2023-02-12T11:10:31;5.50;99.90
18839;DHT22;9548;56.920;14.804;2023-02-12T11:12:59;5.60;99.90
18839;DHT22;9548;56.920;14.804;2023-02-12T11:15:37;5.60;99.90
18839;DHT22;9548;56.920;14.804;2023-02-12T11:18:21;5.70;99.90
18839;DHT22;9548;56.920;14.804;2023-02-12T11:20:52;5.80;99.90
18839;DHT22;9548;56.920;14.804;2023-02-12T11:23:25;5.80;99.90
18839;DHT22;9548;56.920;14.804;2023-02-12T11:25:58;5.90;99.90
18839;DHT22;9548;56.920;14.804;2023-02-12T11:28:26;5.90;99.90
18839;DHT22;9548;56.920;14.804;2023-02-12T11:30:56;5.80;99.90
18839;DHT22;9548;56.920;14.804;2023-02-12T11:33:29;5.90;99.90
18839;DHT22;9548;56.920;14.804;2023-02-12T11:35:59;6.00;99.90
18839;DHT22;9548;56.920;14.804;2023-02-12T11:38:32;6.00;99.90
18839;DHT22;9548;56.920;14.804;2023-02-12T11:41:06;6.00;99.90
18839;DHT22;9548;56.920;14.804;2023-02-12T11:43:34;6.10;99.90
18839;DHT22;9548;56.920;14.804;2023-02-12T11:46:05;6.10;99.90
18839;DHT22;9548;56.920;14.804;2023-02-12T11:48:35;6.10;99.90
18839;DHT22;9548;56.920;14.804;2023-02-12T11:51:06;6.20;99.90
18839;DHT22;9548;56.920;14.804;2023-02-12T11:53:42;6.20;99.90
18839;DHT22;9548;56.920;14.804;2023-02-12T11:56:14;6.20;99.90
18839;DHT22;9548;56.920;14.804;2023-02-12T11:58:41;6.10;99.90
18839;DHT22;9548;56.920;14.804;2023-02-12T12:01:15;6.10;99.90
18839;DHT22;9548;56.920;14.804;2023-02-12T12:03:50;6.20;99.90
18839;DHT22;9548;56.920;14.804;2023-02-12T12:06:36;6.10;99.90
18839;DHT22;9548;56.920;14.804;2023-02-12T12:09:09;6.10;99.90
18839;DHT22;9548;56.920;14.804;2023-02-12T12:11:46;6.20;99.90
18839;DHT22;9548;56.920;14.804;2023-02-12T12:14:21;6.20;99.90
18839;DHT22;9548;56.920;14.804;2023-02-12T12:16:54;6.20;99.90
18839;DHT22;9548;56.920;14.804;2023-02-12T12:19:47;6.20;99.90
18839;DHT22;9548;56.920;14.804;2023-02-12T12:22:42;6.20;99.90
18839;DHT22;9548;56.920;14.804;2023-02-12T12:25:16;6.10;99.90
18839;DHT22;9548;56.920;14.804;2023-02-12T12:27:55;6.10;99.90
18839;DHT22;9548;56.920;14.804;2023-02-12T12:30:39;6.10;99.90
18839;DHT22;9548;56.920;14.804;2023-02-12T12:33:12;6.20;99.90
18839;DHT22;9548;56.920;14.804;2023-02-12T12:35:46;6.20;99.90
18839;DHT22;9548;56.920;14.804;2023-02-12T12:38:22;6.20;99.90
18839;DHT22;9548;56.920;14.804;2023-02-12T12:41:01;6.20;99.90
18839;DHT22;9548;56.920;14.804;2023-02-12T12:43:35;6.20;99.90
18839;DHT22;9548;56.920;14.804;2023-02-12T12:46:30;6.20;99.90
18839;DHT22;9548;56.920;14.804;2023-02-12T12:55:10;6.30;99.90
18839;DHT22;9548;56.920;14.804;2023-02-12T12:57:49;6.20;99.90
18839;DHT22;9548;56.920;14.804;2023-02-12T13:00:35;6.30;99.90
18839;DHT22;9548;56.920;14.804;2023-02-12T13:06:11;6.30;99.90
18839;DHT22;9548;56.920;14.804;2023-02-12T13:08:55;6.40;99.90
18839;DHT22;9548;56.920;14.804;2023-02-12T13:11:35;6.40;99.90
18839;DHT22;9548;56.920;14.804;2023-02-12T13:14:13;6.50;99.90
18839;DHT22;9548;56.920;14.804;2023-02-12T13:16:47;6.40;99.90
18839;DHT22;9548;56.920;14.804;2023-02-12T13:19:18;6.40;99.90
18839;DHT22;9548;56.920;14.804;2023-02-12T13:21:54;6.40;99.90
18839;DHT22;9548;56.920;14.804;2023-02-12T13:24:29;6.40;99.90
18839;DHT22;9548;56.920;14.804;2023-02-12T13:27:03;6.40;99.90
18839;DHT22;9548;56.920;14.804;2023-02-12T13:29:34;6.40;99.90
18839;DHT22;9548;56.920;14.804;2023-02-12T13:32:06;6.50;99.90
18839;DHT22;9548;56.920;14.804;2023-02-12T13:34:39;6.50;99.90
18839;DHT22;9548;56.920;14.804;2023-02-12T13:37:12;6.50;99.90
18839;DHT22;9548;56.920;14.804;2023-02-12T13:39:44;6.50;99.90
18839;DHT22;9548;56.920;14.804;2023-02-12T13:42:23;6.60;99.90
18839;DHT22;9548;56.920;14.804;2023-02-12T13:44:58;6.70;99.90
18839;DHT22;9548;56.920;14.804;2023-02-12T13:47:33;6.80;99.90
18839;DHT22;9548;56.920;14.804;2023-02-12T13:50:10;6.80;99.90
18839;DHT22;9548;56.920;14.804;2023-02-12T13:52:46;6.90;99.90
18839;DHT22;9548;56.920;14.804;2023-02-12T13:55:22;6.90;99.90
18839;DHT22;9548;56.920;14.804;2023-02-12T14:00:58;6.90;99.90
18839;DHT22;9548;56.920;14.804;2023-02-12T14:03:26;6.90;99.90
18839;DHT22;9548;56.920;14.804;2023-02-12T14:06:10;6.90;99.90
18839;DHT22;9548;56.920;14.804;2023-02-12T14:08:40;6.90;99.90
18839;DHT22;9548;56.920;14.804;2023-02-12T14:11:09;7.00;99.90
18839;DHT22;9548;56.920;14.804;2023-02-12T14:13:47;7.00;99.90
18839;DHT22;9548;56.920;14.804;2023-02-12T14:16:36;7.00;99.90
18839;DHT22;9548;56.920;14.804;2023-02-12T14:19:37;7.10;99.90
18839;DHT22;9548;56.920;14.804;2023-02-12T14:22:10;7.00;99.90
18839;DHT22;9548;56.920;14.804;2023-02-12T14:24:49;7.00;99.90
18839;DHT22;9548;56.920;14.804;2023-02-12T14:27:29;7.00;99.90
18839;DHT22;9548;56.920;14.804;2023-02-12T14:30:09;7.10;99.90
18839;DHT22;9548;56.920;14.804;2023-02-12T14:32:57;7.10;99.90
18839;DHT22;9548;56.920;14.804;2023-02-12T14:35:32;7.10;99.90
18839;DHT22;9548;56.920;14.804;2023-02-12T14:38:00;7.20;99.90
18839;DHT22;9548;56.920;14.804;2023-02-12T14:40:45;7.20;99.90
18839;DHT22;9548;56.920;14.804;2023-02-12T14:43:24;7.20;99.90
18839;DHT22;9548;56.920;14.804;2023-02-12T14:45:52;7.20;99.90
18839;DHT22;9548;56.920;14.804;2023-02-12T14:48:49;7.20;99.90
18839;DHT22;9548;56.920;14.804;2023-02-12T14:51:21;7.30;99.90
18839;DHT22;9548;56.920;14.804;2023-02-12T14:53:49;7.30;99.90
18839;DHT22;9548;56.920;14.804;2023-02-12T14:56:19;7.30;99.90
18839;DHT22;9548;56.920;14.804;2023-02-12T14:58:47;7.30;99.90
18839;DHT22;9548;56.920;14.804;2023-02-12T15:01:15;7.30;99.90
18839;DHT22;9548;56.920;14.804;2023-02-12T15:03:45;7.30;99.90
18839;DHT22;9548;56.920;14.804;2023-02-12T15:06:16;7.20;99.90
18839;DHT22;9548;56.920;14.804;2023-02-12T15:08:49;7.20;99.90
18839;DHT22;9548;56.920;14.804;2023-02-12T15:11:26;7.20;99.90
18839;DHT22;9548;56.920;14.804;2023-02-12T15:13:59;7.20;99.90
18839;DHT22;9548;56.920;14.804;2023-02-12T15:16:33;7.10;99.90
18839;DHT22;9548;56.920;14.804;2023-02-12T15:19:04;7.10;99.90
18839;DHT22;9548;56.920;14.804;2023-02-12T15:21:36;7.00;99.90
18839;DHT22;9548;56.920;14.804;2023-02-12T15:24:07;7.00;99.90
18839;DHT22;9548;56.920;14.804;2023-02-12T15:26:38;6.90;99.90
18839;DHT22;9548;56.920;14.804;2023-02-12T15:29:13;6.80;99.90
18839;DHT22;9548;56.920;14.804;2023-02-12T15:31:41;6.80;99.90
18839;DHT22;9548;56.920;14.804;2023-02-12T15:34:19;6.80;99.90
18839;DHT22;9548;56.920;14.804;2023-02-12T15:36:47;6.70;99.90
18839;DHT22;9548;56.920;14.804;2023-02-12T15:39:17;6.70;99.90
18839;DHT22;9548;56.920;14.804;2023-02-12T15:41:46;6.70;99.90
18839;DHT22;9548;56.920;14.804;2023-02-12T15:44:25;6.60;99.90
18839;DHT22;9548;56.920;14.804;2023-02-12T15:46:57;6.60;99.90
18839;DHT22;9548;56.920;14.804;2023-02-12T15:49:30;6.60;99.90
18839;DHT22;9548;56.920;14.804;2023-02-12T15:51:58;6.50;99.90
18839;DHT22;9548;56.920;14.804;2023-02-12T15:54:28;6.40;99.90
18839;DHT22;9548;56.920;14.804;2023-02-12T15:56:56;6.40;99.90
18839;DHT22;9548;56.920;14.804;2023-02-12T15:59:24;6.40;99.90
18839;DHT22;9548;56.920;14.804;2023-02-12T16:01:55;6.40;99.90
18839;DHT22;9548;56.920;14.804;2023-02-12T16:04:23;6.30;99.90
18839;DHT22;9548;56.920;14.804;2023-02-12T16:06:51;6.30;99.90
18839;DHT22;9548;56.920;14.804;2023-02-12T16:09:23;6.20;99.90
18839;DHT22;9548;56.920;14.804;2023-02-12T16:11:56;6.10;99.90
18839;DHT22;9548;56.920;14.804;2023-02-12T16:14:27;6.10;99.90
18839;DHT22;9548;56.920;14.804;2023-02-12T16:16:57;6.10;99.90
18839;DHT22;9548;56.920;14.804;2023-02-12T16:19:26;6.00;99.90
18839;DHT22;9548;56.920;14.804;2023-02-12T16:21:57;6.00;99.90
18839;DHT22;9548;56.920;14.804;2023-02-12T16:24:28;6.10;99.90
18839;DHT22;9548;56.920;14.804;2023-02-12T16:26:58;6.00;99.90